Time;durP1;ratioP1;P1;durP2;ratioP2;P2;SDS_P1;SDS_P2;PMS_P1;PMS_P2;Temp;Humidity;BMP_temperature;BMP_pressure;BME280_temperature;BME280_humidity;BME280_pressure;Samples;Min_cycle;Max_cycle;Signal;HPM_P1;HPM_P2
2023/04/11 00:02:12;;;;;;;4.68;1.20;;;;;;;;;;5068304;28;20127;-71
2023/04/11 00:04:38;;;;;;;4.13;1.30;;;;;;;;;;5068142;28;20463;-71
2023/04/11 00:07:06;;;;;;;5.60;1.23;;;;;;;;;;5069211;28;20040;-71
2023/04/11 00:09:32;;;;;;;3.63;0.90;;;;;;;;;;5070305;28;20047;-71
2023/04/11 00:12:00;;;;;;;4.93;0.90;;;;;;;;;;5052200;28;20044;-71
2023/04/11 00:14:27;;;;;;;4.30;1.02;;;;;;;;;;5069089;28;20053;-70
2023/04/11 00:16:54;;;;;;;3.30;1.10;;;;;;;;;;5050425;28;20083;-70
2023/04/11 00:19:24;;;;;;;;;;;;;;;;;;5068696;28;20045;-70
2023/04/11 00:21:50;;;;;;;6.88;1.60;;;;;;;;;;5052031;28;19920;-70
2023/04/11 00:24:17;;;;;;;5.63;1.40;;;;;;;;;;5067686;28;20044;-70
2023/04/11 00:26:43;;;;;;;4.60;1.45;;;;;;;;;;5102486;28;20517;-70
2023/04/11 00:29:09;;;;;;;4.88;1.30;;;;;;;;;;5068805;28;20052;-70
2023/04/11 00:31:35;;;;;;;7.00;1.45;;;;;;;;;;5068463;28;20044;-70
2023/04/11 00:34:01;;;;;;;5.90;1.60;;;;;;;;;;5051036;28;20048;-70
2023/04/11 00:36:27;;;;;;;8.10;1.95;;;;;;;;;;5052118;28;20145;-70
2023/04/11 00:38:53;;;;;;;6.15;1.50;;;;;;;;;;5068401;28;20048;-70
2023/04/11 00:41:20;;;;;;;7.65;1.65;;;;;;;;;;5068797;28;20036;-70
2023/04/11 00:43:46;;;;;;;7.22;1.30;;;;;;;;;;5068418;28;20049;-70
2023/04/11 00:46:13;;;;;;;9.52;2.03;;;;;;;;;;5068583;28;20053;-70
2023/04/11 00:48:40;;;;;;;10.13;1.77;;;;;;;;;;5066865;28;20403;-70
2023/04/11 00:51:06;;;;;;;10.57;2.03;;;;;;;;;;5051909;28;20127;-70
2023/04/11 00:53:32;;;;;;;6.75;1.50;;;;;;;;;;5051891;28;20045;-70
2023/04/11 00:56:01;;;;;;;6.93;1.67;;;;;;;;;;5059310;28;20373;-70
2023/04/11 00:58:28;;;;;;;10.15;1.90;;;;;;;;;;5067524;28;20036;-70
2023/04/11 01:00:54;;;;;;;11.60;2.30;;;;;;;;;;5068133;28;20047;-70
2023/04/11 01:03:21;;;;;;;11.85;2.10;;;;;;;;;;5069515;28;20139;-70
2023/04/11 01:05:48;;;;;;;14.30;2.50;;;;;;;;;;5068624;28;20077;-70
2023/04/11 01:08:15;;;;;;;12.77;2.15;;;;;;;;;;5071107;28;20052;-70
2023/04/11 01:10:41;;;;;;;;;;;;;;;;;;5071125;28;20068;-70
2023/04/11 01:13:08;;;;;;;11.13;2.38;;;;;;;;;;5069132;28;20352;-70
2023/04/11 01:15:34;;;;;;;12.60;2.30;;;;;;;;;;5070142;28;20162;-70
2023/04/11 01:18:00;;;;;;;9.18;2.08;;;;;;;;;;5070655;28;20469;-71
2023/04/11 01:20:27;;;;;;;8.52;2.15;;;;;;;;;;5070233;28;20453;-70
2023/04/11 01:22:53;;;;;;;11.38;2.00;;;;;;;;;;5068725;28;20072;-70
2023/04/11 01:25:21;;;;;;;9.32;2.10;;;;;;;;;;5070298;28;20431;-70
2023/04/11 01:27:47;;;;;;;10.98;1.77;;;;;;;;;;5068662;28;20079;-71
2023/04/11 01:30:13;;;;;;;6.35;1.60;;;;;;;;;;5071428;28;20049;-71
2023/04/11 01:32:39;;;;;;;6.32;1.40;;;;;;;;;;5069099;28;20036;-71
2023/04/11 01:35:06;;;;;;;11.32;1.80;;;;;;;;;;5070517;28;20044;-71
2023/04/11 01:37:33;;;;;;;9.95;2.35;;;;;;;;;;5070227;28;20056;-71
2023/04/11 01:39:59;;;;;;;6.07;1.45;;;;;;;;;;5069561;28;20053;-72
2023/04/11 01:42:25;;;;;;;;;;;;;;;;;;5104584;28;20040;-71
2023/04/11 01:44:52;;;;;;;9.70;1.98;;;;;;;;;;5053629;28;19921;-72
2023/04/11 01:47:18;;;;;;;;;;;;;;;;;;5070652;28;20045;-71
2023/04/11 01:49:44;;;;;;;8.77;1.63;;;;;;;;;;5068590;28;19920;-70
2023/04/11 01:52:10;;;;;;;6.50;2.15;;;;;;;;;;5069336;28;20518;-71
2023/04/11 01:54:36;;;;;;;5.50;1.58;;;;;;;;;;5070910;28;20124;-71
2023/04/11 01:57:02;;;;;;;6.82;1.38;;;;;;;;;;5068843;28;20036;-71
2023/04/11 01:59:28;;;;;;;7.20;1.25;;;;;;;;;;5069712;28;20503;-71
2023/04/11 02:01:54;;;;;;;6.95;1.10;;;;;;;;;;5069241;28;20036;-70
2023/04/11 02:04:20;;;;;;;2.97;0.90;;;;;;;;;;5069077;28;20049;-71
2023/04/11 02:06:46;;;;;;;3.55;0.80;;;;;;;;;;5070115;28;20047;-71
2023/04/11 02:09:12;;;;;;;3.35;0.73;;;;;;;;;;5070424;28;20058;-70
2023/04/11 02:11:38;;;;;;;3.10;0.65;;;;;;;;;;5051921;28;20505;-71
2023/04/11 02:14:05;;;;;;;3.08;0.70;;;;;;;;;;5068406;28;20157;-71
2023/04/11 02:16:32;;;;;;;2.33;0.60;;;;;;;;;;5069496;28;20059;-71
2023/04/11 02:18:58;;;;;;;3.40;0.60;;;;;;;;;;5070781;28;20041;-71
2023/04/11 02:21:24;;;;;;;4.05;0.93;;;;;;;;;;5053977;28;20042;-71
2023/04/11 02:23:50;;;;;;;1.17;0.50;;;;;;;;;;5069647;28;20465;-70
2023/04/11 02:26:16;;;;;;;2.35;0.57;;;;;;;;;;5070169;28;20036;-70
2023/04/11 02:28:42;;;;;;;4.85;0.60;;;;;;;;;;5069436;28;20036;-71
2023/04/11 02:31:08;;;;;;;1.85;0.70;;;;;;;;;;5053782;28;20124;-70
2023/04/11 02:33:34;;;;;;;2.00;0.65;;;;;;;;;;5070349;28;20072;-71
2023/04/11 02:36:00;;;;;;;4.80;1.05;;;;;;;;;;5069274;28;20039;-70
2023/04/11 02:38:26;;;;;;;3.38;0.80;;;;;;;;;;5069874;28;20097;-71
2023/04/11 02:40:52;;;;;;;3.45;0.70;;;;;;;;;;5070110;28;20443;-71
2023/04/11 02:43:18;;;;;;;3.15;0.82;;;;;;;;;;5070069;28;20033;-71
2023/04/11 02:45:44;;;;;;;2.78;0.75;;;;;;;;;;5068309;28;20162;-71
2023/04/11 02:48:11;;;;;;;3.10;0.60;;;;;;;;;;5068648;28;20068;-70
2023/04/11 02:50:39;;;;;;;3.13;0.93;;;;;;;;;;5070034;28;20048;-70
2023/04/11 02:53:06;;;;;;;3.35;0.60;;;;;;;;;;5069848;28;20041;-70
2023/04/11 02:55:32;;;;;;;;;;;;;;;;;;5070305;28;20048;-70
2023/04/11 02:57:58;;;;;;;3.40;0.60;;;;;;;;;;5069535;28;19920;-70
2023/04/11 03:00:25;;;;;;;2.88;0.70;;;;;;;;;;5070013;28;20891;-70
2023/04/11 03:02:51;;;;;;;3.13;0.80;;;;;;;;;;5067686;28;20080;-71
2023/04/11 03:05:17;;;;;;;2.50;0.73;;;;;;;;;;5069510;28;20039;-70
2023/04/11 03:07:43;;;;;;;2.58;0.80;;;;;;;;;;5069537;28;20496;-70
2023/04/11 03:10:09;;;;;;;1.98;0.63;;;;;;;;;;5069783;28;20051;-70
2023/04/11 03:12:36;;;;;;;2.80;0.90;;;;;;;;;;5069785;28;20056;-70
2023/04/11 03:15:02;;;;;;;3.10;0.80;;;;;;;;;;5051941;28;20487;-71
2023/04/11 03:17:28;;;;;;;3.72;0.88;;;;;;;;;;5068079;28;20059;-70
2023/04/11 03:19:54;;;;;;;1.67;0.90;;;;;;;;;;5069288;28;20048;-70
2023/04/11 03:22:22;;;;;;;2.67;0.90;;;;;;;;;;5069343;28;20510;-70
2023/04/11 03:24:49;;;;;;;4.03;0.88;;;;;;;;;;5067908;28;20051;-70
2023/04/11 03:27:15;;;;;;;5.80;0.90;;;;;;;;;;5069268;28;20102;-70
2023/04/11 03:29:41;;;;;;;4.43;1.10;;;;;;;;;;5069074;28;20040;-70
2023/04/11 03:32:07;;;;;;;5.05;1.10;;;;;;;;;;5069030;28;20056;-70
2023/04/11 03:34:33;;;;;;;2.78;0.80;;;;;;;;;;5067397;28;20048;-70
2023/04/11 03:36:59;;;;;;;2.92;0.88;;;;;;;;;;5068375;28;20055;-70
2023/04/11 03:39:25;;;;;;;5.40;0.95;;;;;;;;;;5069205;28;20051;-70
2023/04/11 03:41:51;;;;;;;5.28;1.00;;;;;;;;;;5069167;28;20510;-70
2023/04/11 03:44:17;;;;;;;4.65;1.10;;;;;;;;;;5068293;28;20488;-70
2023/04/11 03:46:43;;;;;;;5.53;1.20;;;;;;;;;;5069329;28;20385;-70
2023/04/11 03:49:09;;;;;;;2.67;0.80;;;;;;;;;;5067960;28;20515;-70
2023/04/11 03:51:35;;;;;;;2.33;0.90;;;;;;;;;;5067962;28;20044;-70
2023/04/11 03:54:01;;;;;;;5.03;1.10;;;;;;;;;;5069240;28;20048;-71
2023/04/11 03:56:27;;;;;;;6.40;1.27;;;;;;;;;;5068996;28;20041;-71
2023/04/11 03:58:53;;;;;;;3.60;1.20;;;;;;;;;;5070390;28;20044;-71
2023/04/11 04:01:20;;;;;;;4.25;1.35;;;;;;;;;;5069033;28;20040;-71
2023/04/11 04:03:46;;;;;;;3.67;1.10;;;;;;;;;;5070364;28;20131;-70
2023/04/11 04:06:12;;;;;;;5.28;1.23;;;;;;;;;;5050586;28;20399;-70
2023/04/11 04:08:38;;;;;;;5.25;1.30;;;;;;;;;;5069090;28;20044;-69
2023/04/11 04:11:04;;;;;;;7.32;1.67;;;;;;;;;;5068040;28;20044;-69
2023/04/11 04:13:30;;;;;;;9.38;1.58;;;;;;;;;;5070365;28;20399;-69
2023/04/11 04:15:57;;;;;;;8.55;1.52;;;;;;;;;;5069046;28;20036;-69
2023/04/11 04:18:22;;;;;;;;;;;;;;;;;;5052455;28;20048;-69
2023/04/11 04:20:49;;;;;;;6.88;1.70;;;;;;;;;;5068822;28;19923;-70
2023/04/11 04:23:16;;;;;;;8.35;2.15;;;;;;;;;;5050305;28;20052;-70
2023/04/11 04:25:44;;;;;;;8.23;1.52;;;;;;;;;;5049159;28;20052;-69
2023/04/11 04:28:10;;;;;;;6.40;1.40;;;;;;;;;;5057349;28;20522;-69
2023/04/11 04:30:37;;;;;;;8.70;2.00;;;;;;;;;;5068415;28;20149;-70
2023/04/11 04:33:03;;;;;;;11.57;1.80;;;;;;;;;;5068659;28;20052;-70
2023/04/11 04:35:29;;;;;;;6.22;1.63;;;;;;;;;;5068999;28;20499;-70
2023/04/11 04:37:55;;;;;;;5.75;1.40;;;;;;;;;;5072069;28;20072;-71
2023/04/11 04:40:21;;;;;;;6.32;1.77;;;;;;;;;;5072439;28;20369;-71
2023/04/11 04:42:57;;;;;;;7.50;2.05;;;;;;;;;;5071831;28;20054;-71
2023/04/11 04:45:24;;;;;;;9.98;1.80;;;;;;;;;;5072755;28;20123;-71
2023/04/11 04:47:50;;;;;;;13.00;2.38;;;;;;;;;;5073749;28;20052;-71
2023/04/11 04:50:16;;;;;;;8.70;1.83;;;;;;;;;;5083717;28;20079;-71
2023/04/11 04:52:42;;;;;;;8.05;1.60;;;;;;;;;;5068944;28;20044;-71
2023/04/11 04:55:08;;;;;;;8.30;2.15;;;;;;;;;;5052294;28;20040;-70
2023/04/11 04:57:34;;;;;;;6.63;1.95;;;;;;;;;;5069629;28;20468;-70
2023/04/11 05:00:01;;;;;;;8.45;2.20;;;;;;;;;;5055206;28;20047;-70
2023/04/11 05:02:27;;;;;;;6.13;1.77;;;;;;;;;;5105214;28;20067;-71
2023/04/11 05:04:53;;;;;;;9.57;2.00;;;;;;;;;;5054832;28;20042;-72
2023/04/11 05:07:20;;;;;;;6.32;1.85;;;;;;;;;;5071785;28;20363;-72
2023/04/11 05:09:46;;;;;;;8.23;1.77;;;;;;;;;;5070212;28;20045;-72
2023/04/11 05:12:12;;;;;;;;;;;;;;;;;;5071078;28;20127;-72
2023/04/11 05:14:38;;;;;;;8.80;1.77;;;;;;;;;;5068824;28;19967;-72
2023/04/11 05:17:05;;;;;;;8.52;1.90;;;;;;;;;;5054817;28;20044;-71
2023/04/11 05:19:31;;;;;;;7.68;2.25;;;;;;;;;;5052587;28;20086;-71
2023/04/11 05:21:58;;;;;;;10.07;2.03;;;;;;;;;;5086356;28;20103;-71
2023/04/11 05:24:24;;;;;;;5.93;1.98;;;;;;;;;;5067162;28;20135;-71
2023/04/11 05:26:50;;;;;;;8.38;2.10;;;;;;;;;;5069712;28;20056;-71
2023/04/11 05:29:16;;;;;;;18.10;4.20;;;;;;;;;;5069817;28;20048;-71
2023/04/11 05:31:42;;;;;;;9.77;2.35;;;;;;;;;;5070282;28;20048;-71
2023/04/11 05:34:08;;;;;;;10.75;2.28;;;;;;;;;;5068240;28;20075;-71
2023/04/11 05:36:35;;;;;;;8.55;2.35;;;;;;;;;;5067960;28;20041;-71
2023/04/11 05:39:03;;;;;;;8.63;2.00;;;;;;;;;;5104496;28;20575;-71
2023/04/11 05:41:29;;;;;;;6.40;2.00;;;;;;;;;;5069363;28;20052;-71
2023/04/11 05:43:55;;;;;;;7.00;1.85;;;;;;;;;;5070209;28;20043;-71
2023/04/11 05:46:21;;;;;;;11.50;2.10;;;;;;;;;;5067564;28;20048;-71
2023/04/11 05:48:47;;;;;;;8.55;1.90;;;;;;;;;;5069809;28;20474;-71
2023/04/11 05:51:13;;;;;;;6.88;1.67;;;;;;;;;;5071302;28;20106;-71
2023/04/11 05:53:39;;;;;;;10.77;2.35;;;;;;;;;;5071272;28;20121;-71
2023/04/11 05:56:06;;;;;;;11.43;2.17;;;;;;;;;;5049670;28;20442;-72
2023/04/11 05:58:33;;;;;;;10.05;2.08;;;;;;;;;;5051363;28;20040;-70
2023/04/11 06:00:59;;;;;;;6.53;1.95;;;;;;;;;;5067156;28;20403;-71
2023/04/11 06:03:26;;;;;;;10.27;2.10;;;;;;;;;;5069874;28;20072;-71
2023/04/11 06:05:52;;;;;;;11.00;2.05;;;;;;;;;;5054082;28;20090;-72
2023/04/11 06:08:19;;;;;;;10.70;2.22;;;;;;;;;;5085499;28;20041;-72
2023/04/11 06:10:45;;;;;;;7.57;1.90;;;;;;;;;;5069357;28;20056;-71
2023/04/11 06:13:11;;;;;;;8.07;1.73;;;;;;;;;;5053341;28;20488;-71
2023/04/11 06:15:37;;;;;;;8.02;1.90;;;;;;;;;;5067555;28;20048;-71
2023/04/11 06:18:03;;;;;;;9.18;2.10;;;;;;;;;;5067481;28;20037;-71
2023/04/11 06:20:29;;;;;;;7.53;2.42;;;;;;;;;;5068144;28;20036;-71
2023/04/11 06:22:56;;;;;;;10.30;2.53;;;;;;;;;;5070667;28;20082;-71
2023/04/11 06:25:23;;;;;;;10.20;2.30;;;;;;;;;;5066870;28;20059;-71
2023/04/11 06:27:50;;;;;;;8.90;2.10;;;;;;;;;;5066295;28;20040;-71
2023/04/11 06:30:16;;;;;;;12.48;2.20;;;;;;;;;;5052434;28;20387;-71
2023/04/11 06:32:42;;;;;;;11.32;2.40;;;;;;;;;;5065929;28;20457;-71
2023/04/11 06:35:09;;;;;;;10.52;2.33;;;;;;;;;;5066921;28;20447;-71
2023/04/11 06:37:35;;;;;;;9.10;2.15;;;;;;;;;;5066566;28;20048;-71
2023/04/11 06:40:01;;;;;;;11.60;2.15;;;;;;;;;;5052698;28;20048;-71
2023/04/11 06:42:27;;;;;;;7.28;2.05;;;;;;;;;;5068705;28;20033;-71
2023/04/11 06:44:53;;;;;;;13.75;2.15;;;;;;;;;;5067938;28;20076;-71
2023/04/11 06:47:19;;;;;;;11.55;2.70;;;;;;;;;;5066938;28;20048;-71
2023/04/11 06:49:45;;;;;;;9.55;2.20;;;;;;;;;;5067477;28;20046;-71
2023/04/11 06:52:11;;;;;;;12.10;2.33;;;;;;;;;;5051220;28;20127;-71
2023/04/11 06:54:38;;;;;;;12.00;2.13;;;;;;;;;;5069586;28;20051;-71
2023/04/11 06:57:04;;;;;;;13.43;2.63;;;;;;;;;;5051979;28;20403;-71
2023/04/11 06:59:30;;;;;;;11.80;2.72;;;;;;;;;;5069416;28;20541;-71
2023/04/11 07:01:57;;;;;;;12.10;2.45;;;;;;;;;;5060607;28;20151;-70
2023/04/11 07:04:23;;;;;;;9.70;2.10;;;;;;;;;;5069852;28;20048;-71
2023/04/11 07:06:50;;;;;;;10.20;2.40;;;;;;;;;;5067674;28;20048;-71
2023/04/11 07:09:16;;;;;;;12.63;2.40;;;;;;;;;;5069823;28;20048;-71
2023/04/11 07:11:42;;;;;;;9.23;2.25;;;;;;;;;;5068707;28;20626;-71
2023/04/11 07:14:08;;;;;;;9.23;2.13;;;;;;;;;;5071545;28;20040;-71
2023/04/11 07:16:34;;;;;;;8.75;1.90;;;;;;;;;;5051477;28;20056;-70
2023/04/11 07:19:01;;;;;;;8.10;2.20;;;;;;;;;;5045451;28;20533;-70
2023/04/11 07:21:30;;;;;;;10.85;1.98;;;;;;;;;;5065844;28;20117;-70
2023/04/11 07:23:56;;;;;;;9.07;2.33;;;;;;;;;;5066986;28;20845;-70
2023/04/11 07:26:22;;;;;;;9.98;2.00;;;;;;;;;;5063787;28;20048;-70
2023/04/11 07:28:49;;;;;;;15.07;3.00;;;;;;;;;;5058290;28;20032;-70
2023/04/11 07:31:16;;;;;;;11.43;2.47;;;;;;;;;;5065790;28;20052;-70
2023/04/11 07:33:43;;;;;;;9.65;2.03;;;;;;;;;;5046033;28;20051;-70
2023/04/11 07:36:09;;;;;;;10.38;2.00;;;;;;;;;;5066871;28;20044;-71
2023/04/11 07:38:36;;;;;;;7.57;1.83;;;;;;;;;;5068682;28;20045;-71
2023/04/11 07:41:03;;;;;;;11.68;1.98;;;;;;;;;;5067221;28;20171;-71
2023/04/11 07:43:30;;;;;;;8.50;2.15;;;;;;;;;;5068097;28;20043;-71
2023/04/11 07:45:56;;;;;;;;;;;;;;;;;;5062214;28;20067;-71
2023/04/11 07:48:23;;;;;;;13.00;2.50;;;;;;;;;;5066776;28;19936;-74
2023/04/11 07:50:49;;;;;;;11.40;2.20;;;;;;;;;;5083514;28;20503;-71
2023/04/11 07:53:15;;;;;;;12.70;2.22;;;;;;;;;;5069380;28;20055;-71
2023/04/11 07:55:42;;;;;;;10.25;1.88;;;;;;;;;;5067050;28;20484;-71
2023/04/11 07:58:08;;;;;;;;;;;;;;;;;;5051251;28;20488;-71
2023/04/11 08:00:34;;;;;;;9.80;1.77;;;;;;;;;;5066397;28;19923;-71
2023/04/11 08:03:03;;;;;;;;;;;;;;;;;;5068646;28;20036;-71
2023/04/11 08:05:29;;;;;;;7.03;1.85;;;;;;;;;;5070145;28;20236;-71
2023/04/11 08:07:55;;;;;;;;;;;;;;;;;;5064012;28;20070;-71
2023/04/11 08:10:21;;;;;;;9.90;1.85;;;;;;;;;;5070732;28;20315;-71
2023/04/11 08:12:48;;;;;;;8.23;1.80;;;;;;;;;;5070701;28;20044;-71
2023/04/11 08:15:14;;;;;;;;;;;;;;;;;;5070741;28;20048;-71
2023/04/11 08:17:42;;;;;;;8.57;1.60;;;;;;;;;;5070439;28;19931;-71
2023/04/11 08:20:12;;;;;;;9.02;2.10;;;;;;;;;;5070487;28;20057;-71
2023/04/11 08:22:38;;;;;;;8.70;1.60;;;;;;;;;;5069564;28;20044;-71
2023/04/11 08:25:11;;;;;;;8.13;1.85;;;;;;;;;;5070472;28;20133;-71
2023/04/11 08:27:37;;;;;;;11.70;2.17;;;;;;;;;;5067274;28;20131;-71
2023/04/11 08:30:07;;;;;;;9.70;2.08;;;;;;;;;;5071048;28;20040;-71
2023/04/11 08:32:34;;;;;;;8.10;2.03;;;;;;;;;;5100834;28;20048;-70
2023/04/11 08:35:00;;;;;;;10.20;1.80;;;;;;;;;;5072807;28;20083;-71
2023/04/11 08:37:27;;;;;;;6.80;1.85;;;;;;;;;;5053818;28;20044;-71
2023/04/11 08:39:53;;;;;;;9.10;2.00;;;;;;;;;;5054923;28;20106;-71
2023/04/11 08:42:23;;;;;;;8.10;1.95;;;;;;;;;;5071364;28;20076;-70
2023/04/11 08:44:52;;;;;;;11.13;2.60;;;;;;;;;;5074894;28;20469;-70
2023/04/11 08:47:18;;;;;;;8.45;1.88;;;;;;;;;;5065488;28;20475;-70
2023/04/11 08:49:44;;;;;;;9.02;2.50;;;;;;;;;;5070980;28;20040;-71
2023/04/11 08:52:10;;;;;;;11.73;2.45;;;;;;;;;;5052416;28;20071;-70
2023/04/11 08:54:36;;;;;;;10.40;1.70;;;;;;;;;;5095522;28;20128;-70
2023/04/11 08:57:02;;;;;;;8.88;2.40;;;;;;;;;;5068673;28;20396;-70
2023/04/11 08:59:28;;;;;;;6.47;1.67;;;;;;;;;;5047146;28;20447;-70
2023/04/11 09:02:05;;;;;;;7.22;1.52;;;;;;;;;;5101562;28;20044;-70
2023/04/11 09:04:41;;;;;;;2.95;1.17;;;;;;;;;;5066575;28;20048;-70
2023/04/11 09:07:07;;;;;;;5.35;1.10;;;;;;;;;;5070261;28;20146;-70
2023/04/11 09:09:35;;;;;;;6.78;1.77;;;;;;;;;;5101949;28;20044;-70
2023/04/11 09:12:02;;;;;;;7.35;1.85;;;;;;;;;;5054342;28;20052;-69
2023/04/11 09:14:28;;;;;;;5.85;1.80;;;;;;;;;;5083502;28;20037;-70
2023/04/11 09:17:03;;;;;;;6.95;1.55;;;;;;;;;;5055881;28;20048;-70
2023/04/11 09:19:33;;;;;;;7.28;1.65;;;;;;;;;;5068207;28;20054;-70
2023/04/11 09:22:00;;;;;;;11.10;2.08;;;;;;;;;;5058409;28;20041;-70
2023/04/11 09:24:28;;;;;;;7.18;2.00;;;;;;;;;;5049214;28;20044;-70
2023/04/11 09:27:07;;;;;;;8.55;1.60;;;;;;;;;;5059394;28;20051;-70
2023/04/11 09:29:37;;;;;;;7.00;1.50;;;;;;;;;;5046374;28;20155;-70
2023/04/11 09:32:03;;;;;;;7.47;1.70;;;;;;;;;;5070043;28;20536;-70
2023/04/11 09:34:30;;;;;;;6.43;1.50;;;;;;;;;;5070609;28;20071;-70
2023/04/11 09:36:56;;;;;;;7.38;1.50;;;;;;;;;;5070807;28;20045;-70
2023/04/11 09:39:23;;;;;;;7.32;1.50;;;;;;;;;;5061350;28;20095;-70
2023/04/11 09:41:49;;;;;;;7.00;1.50;;;;;;;;;;5066008;28;20060;-70
2023/04/11 09:44:15;;;;;;;5.45;1.38;;;;;;;;;;5093751;28;20044;-70
2023/04/11 09:46:57;;;;;;;3.58;1.00;;;;;;;;;;5098464;28;20484;-70
2023/04/11 09:49:24;;;;;;;4.43;1.00;;;;;;;;;;5060930;28;20119;-69
2023/04/11 09:51:51;;;;;;;4.72;1.20;;;;;;;;;;5060028;28;20047;-69
2023/04/11 09:54:20;;;;;;;9.30;1.85;;;;;;;;;;5063032;28;20044;-70
2023/04/11 09:56:46;;;;;;;7.28;1.50;;;;;;;;;;5064303;28;20448;-69
2023/04/11 09:59:13;;;;;;;6.97;1.27;;;;;;;;;;5061127;28;20043;-69
2023/04/11 10:01:40;;;;;;;3.10;0.80;;;;;;;;;;5097033;28;20040;-71
2023/04/11 10:04:06;;;;;;;;;;;;;;;;;;5067887;28;20041;-70
2023/04/11 10:06:44;;;;;;;6.22;0.90;;;;;;;;;;5070316;28;19931;-71
2023/04/11 10:09:12;;;;;;;8.10;1.77;;;;;;;;;;5083989;28;20492;-69
2023/04/11 10:11:45;;;;;;;4.32;1.00;;;;;;;;;;5084452;28;20453;-70
2023/04/11 10:14:30;;;;;;;3.15;0.80;;;;;;;;;;5052733;28;20048;-71
2023/04/11 10:17:12;;;;;;;5.07;1.00;;;;;;;;;;5069613;28;20395;-71
2023/04/11 10:19:39;;;;;;;4.85;0.98;;;;;;;;;;5072102;28;20061;-71
2023/04/11 10:22:05;;;;;;;7.13;1.30;;;;;;;;;;5067356;28;20043;-71
2023/04/11 10:24:31;;;;;;;;;;;;;;;;;;5063419;28;20121;-71
2023/04/11 10:26:58;;;;;;;6.82;1.30;;;;;;;;;;5066591;28;19920;-71
2023/04/11 10:29:27;;;;;;;4.22;1.15;;;;;;;;;;5071818;28;20117;-72
2023/04/11 10:32:14;;;;;;;6.40;1.15;;;;;;;;;;5071351;28;20045;-72
2023/04/11 10:34:50;;;;;;;5.17;1.10;;;;;;;;;;5052779;28;20129;-71
2023/04/11 10:37:16;;;;;;;2.35;0.73;;;;;;;;;;5066087;28;20392;-71
2023/04/11 10:39:42;;;;;;;;;;;;;;;;;;5099911;28;20599;-71
2023/04/11 10:42:27;;;;;;;5.28;0.77;;;;;;;;;;5064994;28;20003;-72
2023/04/11 10:45:12;;;;;;;4.75;0.57;;;;;;;;;;5067826;28;20463;-71
2023/04/11 10:47:38;;;;;;;2.25;0.60;;;;;;;;;;5067673;28;20391;-71
2023/04/11 10:50:24;;;;;;;3.92;0.70;;;;;;;;;;5099858;28;20105;-72
2023/04/11 10:52:51;;;;;;;2.70;0.73;;;;;;;;;;5054746;28;20368;-72
2023/04/11 10:55:17;;;;;;;4.72;1.02;;;;;;;;;;5058268;28;20048;-71
2023/04/11 10:58:02;;;;;;;3.25;0.73;;;;;;;;;;5069844;28;20048;-71
2023/04/11 11:00:28;;;;;;;3.05;1.08;;;;;;;;;;5100527;28;20376;-71
2023/04/11 11:02:55;;;;;;;7.13;1.35;;;;;;;;;;5066301;28;20453;-72
2023/04/11 11:05:21;;;;;;;;;;;;;;;;;;5050602;28;20040;-71
2023/04/11 11:07:47;;;;;;;6.78;1.17;;;;;;;;;;5066741;28;19920;-71
2023/04/11 11:10:14;;;;;;;6.10;1.27;;;;;;;;;;5066496;28;20047;-71
2023/04/11 11:12:53;;;;;;;7.07;1.45;;;;;;;;;;5065283;28;20100;-71
2023/04/11 11:15:19;;;;;;;6.93;1.02;;;;;;;;;;5066152;28;20037;-70
2023/04/11 11:17:46;;;;;;;6.93;1.65;;;;;;;;;;5064408;28;20050;-71
2023/04/11 11:20:15;;;;;;;8.88;1.30;;;;;;;;;;5047579;28;20044;-71
2023/04/11 11:22:42;;;;;;;6.70;1.20;;;;;;;;;;5046390;28;20036;-71
2023/04/11 11:25:08;;;;;;;5.72;1.30;;;;;;;;;;5048462;28;20174;-71
2023/04/11 11:27:34;;;;;;;6.07;1.33;;;;;;;;;;5067271;28;20044;-71
2023/04/11 11:30:10;;;;;;;5.65;1.17;;;;;;;;;;5066407;28;20059;-71
2023/04/11 11:32:36;;;;;;;6.72;1.23;;;;;;;;;;5068113;28;20047;-71
2023/04/11 11:35:14;;;;;;;7.25;1.40;;;;;;;;;;5067982;28;20048;-71
2023/04/11 11:37:40;;;;;;;5.57;1.10;;;;;;;;;;5066855;28;20412;-71
2023/04/11 11:40:11;;;;;;;5.95;1.17;;;;;;;;;;5049812;28;20052;-70
2023/04/11 11:42:37;;;;;;;4.10;1.13;;;;;;;;;;5049794;28;20056;-71
2023/04/11 11:45:19;;;;;;;1.85;0.68;;;;;;;;;;5067239;28;20043;-71
2023/04/11 11:47:46;;;;;;;6.20;1.10;;;;;;;;;;5067168;28;20106;-71
2023/04/11 11:50:24;;;;;;;6.93;1.35;;;;;;;;;;5067500;28;20056;-71
2023/04/11 11:52:51;;;;;;;5.70;1.30;;;;;;;;;;5068965;28;20044;-70
2023/04/11 11:55:17;;;;;;;6.13;1.40;;;;;;;;;;5067314;28;20052;-71
2023/04/11 11:57:44;;;;;;;9.07;1.73;;;;;;;;;;5095990;28;20051;-71
2023/04/11 12:00:10;;;;;;;6.63;1.48;;;;;;;;;;5050927;28;20071;-71
2023/04/11 12:02:37;;;;;;;6.68;1.35;;;;;;;;;;5065237;28;20566;-71
2023/04/11 12:05:07;;;;;;;5.20;1.88;;;;;;;;;;5050267;28;20037;-71
2023/04/11 12:07:34;;;;;;;6.97;2.00;;;;;;;;;;5098750;28;20044;-71
2023/04/11 12:10:07;;;;;;;8.02;1.70;;;;;;;;;;5066830;28;20563;-71
2023/04/11 12:12:37;;;;;;;8.77;1.92;;;;;;;;;;5096055;28;20048;-71
2023/04/11 12:15:09;;;;;;;7.82;1.70;;;;;;;;;;5065306;28;20122;-72
2023/04/11 12:17:35;;;;;;;11.23;2.00;;;;;;;;;;5080493;28;20059;-72
2023/04/11 12:20:05;;;;;;;12.75;2.33;;;;;;;;;;5067136;28;20414;-71
2023/04/11 12:22:31;;;;;;;8.00;1.52;;;;;;;;;;5063644;28;20055;-72
2023/04/11 12:25:07;;;;;;;11.38;2.03;;;;;;;;;;5065733;28;20039;-72
2023/04/11 12:27:33;;;;;;;10.67;2.07;;;;;;;;;;5063391;28;21258;-72
2023/04/11 12:30:00;;;;;;;8.13;1.52;;;;;;;;;;5064878;28;20051;-72
2023/04/11 12:32:26;;;;;;;7.45;1.10;;;;;;;;;;5064782;28;20127;-72
2023/04/11 12:34:53;;;;;;;7.32;1.30;;;;;;;;;;5046344;28;20463;-72
2023/04/11 12:37:19;;;;;;;;;;;;;;;;;;5065833;28;20455;-72
2023/04/11 12:39:45;;;;;;;8.68;1.55;;;;;;;;;;5064462;28;20620;-71
2023/04/11 12:42:11;;;;;;;4.22;1.10;;;;;;;;;;5047122;28;20537;-71
2023/04/11 12:44:37;;;;;;;9.73;1.60;;;;;;;;;;5057649;28;20037;-72
2023/04/11 12:47:04;;;;;;;10.80;2.35;;;;;;;;;;5063506;28;20441;-72
2023/04/11 12:49:30;;;;;;;9.75;1.80;;;;;;;;;;5064279;28;20036;-71
2023/04/11 12:51:56;;;;;;;9.93;2.08;;;;;;;;;;5062119;28;20045;-72
2023/04/11 12:54:22;;;;;;;6.82;1.50;;;;;;;;;;5069330;28;20458;-72
2023/04/11 12:56:48;;;;;;;7.55;1.23;;;;;;;;;;5066062;28;20040;-70
2023/04/11 12:59:15;;;;;;;6.35;1.38;;;;;;;;;;5067975;28;20132;-72
2023/04/11 13:01:42;;;;;;;7.32;1.50;;;;;;;;;;5066758;28;20048;-72
2023/04/11 13:04:08;;;;;;;5.95;1.38;;;;;;;;;;5101991;28;20078;-71
2023/04/11 13:06:34;;;;;;;9.43;1.75;;;;;;;;;;5067403;28;20054;-72
2023/04/11 13:09:01;;;;;;;;;;;;;;;;;;5070694;28;20052;-72
2023/04/11 13:11:27;;;;;;;10.13;2.10;;;;;;;;;;5069219;28;19955;-72
2023/04/11 13:13:53;;;;;;;8.52;1.50;;;;;;;;;;5070064;28;20040;-72
2023/04/11 13:16:20;;;;;;;9.52;1.70;;;;;;;;;;5070105;28;20090;-72
2023/04/11 13:18:46;;;;;;;6.57;1.75;;;;;;;;;;5070318;28;20044;-72
2023/04/11 13:21:12;;;;;;;10.18;2.45;;;;;;;;;;5053416;28;20123;-72
2023/04/11 13:23:38;;;;;;;8.48;1.88;;;;;;;;;;5069982;28;20044;-72
2023/04/11 13:26:05;;;;;;;8.75;2.10;;;;;;;;;;5069571;28;20043;-71
2023/04/11 13:28:33;;;;;;;8.68;1.85;;;;;;;;;;5068260;28;20115;-71
2023/04/11 13:31:00;;;;;;;10.45;2.28;;;;;;;;;;5068429;28;20056;-72
2023/04/11 13:33:26;;;;;;;;;;;;;;;;;;5068976;28;20082;-72
2023/04/11 13:35:52;;;;;;;12.18;2.72;;;;;;;;;;5067162;28;19924;-73
2023/04/11 13:38:18;;;;;;;13.77;2.53;;;;;;;;;;5045250;28;20033;-73
2023/04/11 13:40:44;;;;;;;10.40;2.08;;;;;;;;;;5067455;28;20478;-70
2023/04/11 13:43:10;;;;;;;;;;;;;;;;;;5069450;28;20136;-73
2023/04/11 13:45:36;;;;;;;10.02;2.45;;;;;;;;;;5068384;28;19967;-72
2023/04/11 13:48:02;;;;;;;6.95;1.67;;;;;;;;;;5068704;28;20056;-71
2023/04/11 13:50:28;;;;;;;13.48;2.00;;;;;;;;;;5069581;28;20060;-70
2023/04/11 13:52:55;;;;;;;9.25;1.80;;;;;;;;;;5065668;28;20127;-70
2023/04/11 13:55:22;;;;;;;8.73;2.03;;;;;;;;;;5101659;28;20066;-70
2023/04/11 13:57:48;;;;;;;9.73;1.77;;;;;;;;;;5064748;28;20510;-70
2023/04/11 14:00:14;;;;;;;9.77;1.70;;;;;;;;;;5094679;28;20067;-70
2023/04/11 14:02:40;;;;;;;;;;;;;;;;;;5070176;28;20036;-70
2023/04/11 14:05:07;;;;;;;5.50;1.52;;;;;;;;;;5051365;28;19920;-71
2023/04/11 14:07:33;;;;;;;7.80;2.03;;;;;;;;;;5064920;28;20515;-70
2023/04/11 14:09:59;;;;;;;9.68;1.90;;;;;;;;;;5067681;28;20079;-70
2023/04/11 14:12:26;;;;;;;7.55;1.70;;;;;;;;;;5066470;28;20075;-70
2023/04/11 14:14:52;;;;;;;5.85;1.73;;;;;;;;;;5068039;28;20044;-70
2023/04/11 14:17:18;;;;;;;5.13;1.40;;;;;;;;;;5046965;28;20080;-70
2023/04/11 14:19:44;;;;;;;5.03;1.55;;;;;;;;;;5066655;28;20495;-70
2023/04/11 14:22:10;;;;;;;6.95;1.80;;;;;;;;;;5063831;28;20406;-71
2023/04/11 14:24:36;;;;;;;10.68;1.67;;;;;;;;;;5067474;28;20083;-70
2023/04/11 14:27:03;;;;;;;7.22;1.63;;;;;;;;;;5050783;28;20101;-70
2023/04/11 14:29:29;;;;;;;7.07;1.77;;;;;;;;;;5064858;28;20573;-69
2023/04/11 14:31:56;;;;;;;6.68;1.90;;;;;;;;;;5071396;28;20519;-71
2023/04/11 14:34:22;;;;;;;6.07;1.65;;;;;;;;;;5097470;28;20411;-71
2023/04/11 14:36:49;;;;;;;9.60;1.85;;;;;;;;;;5065969;28;20407;-71
2023/04/11 14:39:15;;;;;;;;;;;;;;;;;;5063399;28;20102;-71
2023/04/11 14:41:41;;;;;;;8.52;2.22;;;;;;;;;;5078370;28;19928;-72
2023/04/11 14:44:07;;;;;;;8.98;1.85;;;;;;;;;;5064359;28;20090;-71
2023/04/11 14:46:34;;;;;;;7.05;1.80;;;;;;;;;;5061882;28;20047;-71
2023/04/11 14:49:00;;;;;;;10.63;2.33;;;;;;;;;;5096524;28;20097;-70